HKS21Q / G-EMEC 7700 Squawk Report (26th of June, 2019)

Time Lat Lon Altitude Heading Speed Vertical Rate
2019-06-26 19:38:04 GMT 57.204868 -2.206635 0 320 0 0
2019-06-26 19:37:44 GMT 57.204857 -2.206635 0 320 0 0
2019-06-26 19:37:34 GMT 57.204849 -2.206643 0 320 0 0
2019-06-26 19:37:19 GMT 57.204868 -2.206635 0 320 0 0
2019-06-26 19:37:13 GMT 57.204861 -2.206643 0 320 0 0
2019-06-26 19:37:04 GMT 57.204868 -2.206635 0 320 0 0
2019-06-26 19:36:49 GMT 57.204861 -2.206621 0 320 0 0
2019-06-26 19:36:44 GMT 57.204857 -2.206635 0 320 0 0
2019-06-26 19:36:24 GMT 57.204861 -2.206621 0 320 0 0
2019-06-26 19:35:59 GMT 57.204857 -2.206635 0 320 0 0
2019-06-26 19:35:34 GMT 57.204861 -2.206621 0 320 0 0
2019-06-26 19:35:19 GMT 57.204857 -2.206635 0 320 0 0
2019-06-26 19:35:02 GMT 57.204861 -2.206621 0 320 0 0
2019-06-26 19:34:57 GMT 57.204857 -2.206635 0 320 0 0
2019-06-26 19:34:53 GMT 57.204861 -2.206621 0 320 0 0
2019-06-26 19:34:42 GMT 57.204777 -2.206524 0 337 4 0
2019-06-26 19:34:32 GMT 57.204655 -2.206728 0 70 5 0
2019-06-26 19:34:26 GMT 57.204712 -2.206900 0 143 5 0
2019-06-26 19:34:20 GMT 57.204823 -2.206945 0 171 6 0
2019-06-26 19:34:12 GMT 57.205067 -2.207012 0 171 6 0
2019-06-26 19:34:02 GMT 57.205345 -2.207078 0 182 7 0
2019-06-26 19:33:50 GMT 57.205753 -2.207072 0 185 8 0
2019-06-26 19:33:41 GMT 57.206051 -2.207029 0 194 9 0
2019-06-26 19:33:34 GMT 57.206287 -2.206901 0 205 8 0
2019-06-26 19:33:30 GMT 57.206417 -2.206771 0 210 7 0
2019-06-26 19:33:12 GMT 57.206615 -2.206081 0 298 7 0
2019-06-26 19:33:04 GMT 57.206440 -2.205793 0 323 7 0
2019-06-26 19:32:33 GMT 57.205544 -2.204376 0 323 8 0
2019-06-26 19:32:12 GMT 57.204987 -2.203531 0 329 7 0
2019-06-26 19:32:02 GMT 57.204746 -2.203252 0 329 7 0
2019-06-26 19:31:52 GMT 57.204460 -2.202870 0 329 9 0
2019-06-26 19:31:20 GMT 57.203632 -2.201696 0 323 5 0
2019-06-26 19:30:57 GMT 57.203495 -2.201474 0 323 0 0
2019-06-26 19:30:42 GMT 57.203472 -2.201452 0 323 0 0
2019-06-26 19:30:32 GMT 57.203472 -2.201430 0 323 0 0
2019-06-26 19:30:18 GMT 57.203476 -2.201428 0 323 0 0
2019-06-26 19:30:10 GMT 57.203472 -2.201430 0 323 0 0
2019-06-26 19:29:57 GMT 57.203465 -2.201428 0 323 0 0
2019-06-26 19:29:48 GMT 57.203411 -2.201341 0 323 4 0
2019-06-26 19:29:36 GMT 57.203213 -2.201042 0 326 9 0
2019-06-26 19:29:32 GMT 57.203110 -2.200898 0 326 9 0
2019-06-26 19:29:28 GMT 57.202972 -2.200699 0 329 12 0
2019-06-26 19:29:08 GMT 57.202087 -2.199303 -375 319 10 0
2019-06-26 19:28:57 GMT 57.201691 -2.198725 -325 322 12 0
2019-06-26 19:28:46 GMT 57.201096 -2.197781 -300 321 20 0
2019-06-26 19:28:36 GMT 57.200180 -2.196407 -275 319 36 -320
2019-06-26 19:28:25 GMT 57.198780 -2.194165 -225 321 40 -320
2019-06-26 19:28:19 GMT 57.197754 -2.192545 -175 318 46 -384
2019-06-26 19:28:15 GMT 57.197292 -2.191684 -150 319 52 -320
2019-06-26 19:28:08 GMT 57.195831 -2.189369 -100 320 58 -448
2019-06-26 19:27:59 GMT 57.193909 -2.186365 -50 322 66 -448
2019-06-26 19:27:54 GMT 57.192543 -2.184419 0 323 67 -576
2019-06-26 19:27:50 GMT 57.191620 -2.183104 25 323 69 -512
2019-06-26 19:27:43 GMT 57.189892 -2.180609 125 322 71 -384
2019-06-26 19:27:40 GMT 57.188957 -2.179280 100 318 74 -448
2019-06-26 19:27:29 GMT 57.186680 -2.174053 200 297 82 -448
2019-06-26 19:27:24 GMT 57.185654 -2.169888 225 286 88 -512
2019-06-26 19:27:20 GMT 57.185234 -2.166965 275 279 91 -448
2019-06-26 19:27:12 GMT 57.184891 -2.161818 325 271 93 -192
2019-06-26 19:27:09 GMT 57.184937 -2.158985 325 263 94 -128
2019-06-26 19:27:03 GMT 57.186127 -2.150745 375 243 101 -320
2019-06-26 19:26:58 GMT 57.186127 -2.150745 350 241 101 -384
2019-06-26 19:26:51 GMT 57.187981 -2.145346 400 233 104 -320
2019-06-26 19:26:45 GMT 57.189880 -2.140961 425 231 105 -320
2019-06-26 19:26:42 GMT 57.190659 -2.139330 425 230 106 -256
2019-06-26 19:26:38 GMT 57.192078 -2.136221 450 230 106 -256
2019-06-26 19:26:32 GMT 57.193939 -2.132234 475 230 107 -256
2019-06-26 19:26:29 GMT 57.195190 -2.129545 500 230 108 -192
2019-06-26 19:26:22 GMT 57.197342 -2.124910 500 231 112 -64
2019-06-26 19:26:12 GMT 57.200363 -2.117615 500 238 112 -128
2019-06-26 19:26:08 GMT 57.201481 -2.114337 525 246 109 -64
2019-06-26 19:26:01 GMT 57.202835 -2.108431 525 257 105 0
2019-06-26 19:25:57 GMT 57.203205 -2.105388 525 260 104 64
2019-06-26 19:25:51 GMT 57.203762 -2.099629 525 263 103 64
2019-06-26 19:25:46 GMT 57.204025 -2.095642 525 264 103 0
2019-06-26 19:25:41 GMT 57.204300 -2.090921 525 266 104 0
2019-06-26 19:25:36 GMT 57.204460 -2.086694 525 268 104 64
2019-06-26 19:25:30 GMT 57.204483 -2.081137 525 273 104 -64
2019-06-26 19:25:26 GMT 57.204437 -2.077789 525 273 105 0
2019-06-26 19:25:21 GMT 57.204300 -2.072983 525 273 106 0
2019-06-26 19:25:16 GMT 57.204182 -2.068708 525 274 106 0
2019-06-26 19:25:10 GMT 57.203995 -2.063126 525 276 105 0
2019-06-26 19:25:04 GMT 57.203705 -2.058392 525 278 105 -128
2019-06-26 19:25:00 GMT 57.203384 -2.054272 525 279 106 0
2019-06-26 19:24:57 GMT 57.203064 -2.050238 525 281 106 128
2019-06-26 19:24:49 GMT 57.202423 -2.044659 525 283 109 -64
2019-06-26 19:24:46 GMT 57.202087 -2.041685 525 283 109 -64
2019-06-26 19:24:39 GMT 57.201344 -2.035660 525 283 109 64
2019-06-26 19:24:36 GMT 57.200958 -2.032471 500 283 109 0
2019-06-26 19:24:29 GMT 57.200226 -2.026180 525 282 109 0
2019-06-26 19:24:25 GMT 57.199898 -2.022813 525 281 107 192
2019-06-26 19:24:19 GMT 57.199356 -2.017365 525 281 107 -128
2019-06-26 19:24:16 GMT 57.199036 -2.014103 525 281 107 128
2019-06-26 19:24:12 GMT 57.198669 -2.010498 525 281 107 -64
2019-06-26 19:24:09 GMT 57.198441 -2.008352 525 281 107 -64
2019-06-26 19:24:06 GMT 57.198082 -2.004650 525 281 107 0
2019-06-26 19:23:59 GMT 57.197433 -1.998138 525 281 106 -64
2019-06-26 19:23:55 GMT 57.197159 -1.995478 525 280 105 64
2019-06-26 19:23:48 GMT 57.196594 -1.989500 525 280 106 0
2019-06-26 19:23:44 GMT 57.196316 -1.985956 525 280 106 0
2019-06-26 19:23:38 GMT 57.195755 -1.980197 525 280 107 -64
2019-06-26 19:23:35 GMT 57.195511 -1.977196 525 278 106 0
2019-06-26 19:23:27 GMT 57.195103 -1.970806 525 275 108 0
2019-06-26 19:23:24 GMT 57.195011 -1.967616 525 274 109 0
2019-06-26 19:23:17 GMT 57.194778 -1.961148 525 274 109 0
2019-06-26 19:23:14 GMT 57.194687 -1.958224 525 274 110 0
2019-06-26 19:23:07 GMT 57.194450 -1.952022 525 274 110 -64
2019-06-26 19:23:04 GMT 57.194366 -1.949129 525 274 110 0
2019-06-26 19:22:57 GMT 57.194138 -1.942778 525 274 110 0
2019-06-26 19:22:54 GMT 57.194092 -1.939945 525 274 111 64
2019-06-26 19:22:44 GMT 57.193752 -1.930227 525 274 112 64
2019-06-26 19:22:34 GMT 57.193428 -1.920392 525 274 115 -64
2019-06-26 19:22:24 GMT 57.193104 -1.910558 525 274 116 64
2019-06-26 19:22:14 GMT 57.192730 -1.899837 525 274 117 0
2019-06-26 19:22:03 GMT 57.192398 -1.889734 525 274 118 -64
2019-06-26 19:21:53 GMT 57.192032 -1.879903 525 274 118 0
2019-06-26 19:21:49 GMT 57.191895 -1.874971 525 274 118 0
2019-06-26 19:21:42 GMT 57.191704 -1.869714 525 274 118 0
2019-06-26 19:21:33 GMT 57.191380 -1.859525 525 274 118 0
2019-06-26 19:21:22 GMT 57.191006 -1.849247 525 274 118 -64
2019-06-26 19:21:12 GMT 57.190659 -1.839094 525 274 118 0
2019-06-26 19:21:02 GMT 57.190292 -1.829052 525 275 118 0
2019-06-26 19:20:55 GMT 57.190029 -1.821515 525 274 119 64
2019-06-26 19:20:52 GMT 57.189938 -1.818946 525 274 119 0
2019-06-26 19:20:45 GMT 57.189697 -1.811543 525 274 119 -128
2019-06-26 19:20:41 GMT 57.189564 -1.808226 525 274 119 -64
2019-06-26 19:20:31 GMT 57.189240 -1.797810 525 274 118 0
2019-06-26 19:20:22 GMT 57.188911 -1.787848 525 274 119 0
2019-06-26 19:20:14 GMT 57.188599 -1.780472 525 274 118 0
2019-06-26 19:20:11 GMT 57.188507 -1.777296 525 274 118 0
2019-06-26 19:20:01 GMT 57.188187 -1.767254 525 273 118 0
2019-06-26 19:19:50 GMT 57.187592 -1.751804 525 274 118 0
2019-06-26 19:19:42 GMT 57.187469 -1.747889 525 274 118 128
2019-06-26 19:19:36 GMT 57.187271 -1.741762 525 274 118 0
2019-06-26 19:19:33 GMT 57.187191 -1.738852 525 274 118 -64
2019-06-26 19:19:30 GMT 57.187096 -1.736637 525 274 118 0
2019-06-26 19:19:26 GMT 57.186909 -1.731410 525 274 118 64
2019-06-26 19:19:21 GMT 57.186771 -1.727423 525 274 117 0
2019-06-26 19:19:13 GMT 57.186493 -1.718931 525 274 117 64
2019-06-26 19:19:10 GMT 57.186401 -1.716185 525 274 117 0
2019-06-26 19:19:03 GMT 57.186172 -1.709404 525 274 117 64
2019-06-26 19:19:00 GMT 57.186081 -1.706829 525 274 117 0
2019-06-26 19:18:55 GMT 57.185841 -1.700489 525 274 118 0
2019-06-26 19:18:50 GMT 57.185669 -1.696186 525 274 117 0
2019-06-26 19:18:45 GMT 57.185513 -1.691097 525 274 117 -64
2019-06-26 19:18:40 GMT 57.185303 -1.686058 525 274 117 -64
2019-06-26 19:18:33 GMT 57.185047 -1.678605 525 274 117 -64
2019-06-26 19:18:29 GMT 57.184956 -1.676035 525 274 117 0
2019-06-26 19:18:24 GMT 57.184723 -1.669833 525 274 117 0
2019-06-26 19:18:20 GMT 57.184616 -1.665974 525 274 117 0
2019-06-26 19:18:14 GMT 57.184444 -1.660530 525 274 118 0
2019-06-26 19:18:09 GMT 57.184250 -1.655588 525 275 118 -64
2019-06-26 19:18:04 GMT 57.183838 -1.645025 525 274 118 -64
2019-06-26 19:17:59 GMT 57.183838 -1.645025 525 274 118 -64
2019-06-26 19:17:51 GMT 57.183605 -1.637583 525 274 118 0
2019-06-26 19:17:48 GMT 57.183517 -1.635075 525 274 118 128
2019-06-26 19:17:41 GMT 57.183243 -1.627607 525 274 120 0
2019-06-26 19:17:37 GMT 57.183094 -1.623762 500 274 122 64
2019-06-26 19:17:34 GMT 57.182953 -1.619420 500 274 124 -64
2019-06-26 19:17:28 GMT 57.182766 -1.613750 525 274 125 -64
2019-06-26 19:17:21 GMT 57.182465 -1.606150 525 274 127 0
2019-06-26 19:17:17 GMT 57.182346 -1.602321 525 274 128 0
2019-06-26 19:17:10 GMT 57.182053 -1.594391 525 274 130 0
2019-06-26 19:17:07 GMT 57.181961 -1.591301 525 274 130 0
2019-06-26 19:17:01 GMT 57.181648 -1.583183 525 274 134 0
2019-06-26 19:16:57 GMT 57.181557 -1.580259 525 274 134 0
2019-06-26 19:16:53 GMT 57.181324 -1.573614 525 274 135 0
2019-06-26 19:16:50 GMT 57.181229 -1.571474 525 274 136 64
2019-06-26 19:16:46 GMT 57.181137 -1.567955 525 274 137 0
2019-06-26 19:16:42 GMT 57.180954 -1.562634 525 274 139 -128
2019-06-26 19:16:37 GMT 57.180679 -1.554995 550 275 142 -192
2019-06-26 19:16:30 GMT 57.180359 -1.547184 575 274 144 -448
2019-06-26 19:16:26 GMT 57.180206 -1.543402 600 274 144 -512
2019-06-26 19:16:22 GMT 57.180019 -1.538263 650 274 144 -512
2019-06-26 19:16:16 GMT 57.179764 -1.530790 700 274 145 -448
2019-06-26 19:16:12 GMT 57.179554 -1.525505 725 274 144 -512
2019-06-26 19:16:05 GMT 57.179306 -1.517744 775 274 144 -576
2019-06-26 19:16:01 GMT 57.179123 -1.512594 825 274 144 -512
2019-06-26 19:15:58 GMT 57.178951 -1.507785 850 275 143 -512
2019-06-26 19:15:55 GMT 57.178856 -1.505393 850 275 143 -512
2019-06-26 19:15:49 GMT 57.178574 -1.498175 925 275 141 -512
2019-06-26 19:15:45 GMT 57.178345 -1.492939 950 275 140 -512
2019-06-26 19:15:38 GMT 57.178070 -1.485043 1,000 274 138 -256
2019-06-26 19:15:35 GMT 57.177925 -1.480939 1,025 274 137 -64
2019-06-26 19:15:31 GMT 57.177750 -1.475945 1,025 275 137 0
2019-06-26 19:15:27 GMT 57.177567 -1.471996 1,025 275 137 0
2019-06-26 19:15:24 GMT 57.177460 -1.468890 1,025 275 137 0
2019-06-26 19:15:18 GMT 57.177200 -1.461267 1,025 274 137 0
2019-06-26 19:15:11 GMT 57.176853 -1.452765 1,025 275 137 0
2019-06-26 19:15:03 GMT 57.176529 -1.444436 1,025 275 137 0
2019-06-26 19:14:58 GMT 57.176331 -1.438694 1,025 274 137 0
2019-06-26 19:14:53 GMT 57.176109 -1.432564 1,025 274 137 0
2019-06-26 19:14:50 GMT 57.175964 -1.428738 1,000 274 137 0
2019-06-26 19:14:43 GMT 57.175690 -1.420958 1,025 274 137 0
2019-06-26 19:14:40 GMT 57.175552 -1.416893 1,025 274 137 0
2019-06-26 19:14:37 GMT 57.175415 -1.413889 1,025 275 137 0
2019-06-26 19:14:30 GMT 57.175095 -1.405048 1,025 275 137 0
2019-06-26 19:14:27 GMT 57.174992 -1.402174 1,025 275 137 64
2019-06-26 19:14:22 GMT 57.174774 -1.396894 1,000 275 137 0
2019-06-26 19:14:17 GMT 57.174500 -1.390114 1,025 275 137 0
2019-06-26 19:14:12 GMT 57.174294 -1.384898 1,025 275 137 0
2019-06-26 19:14:09 GMT 57.174179 -1.381788 1,025 275 137 0
2019-06-26 19:14:02 GMT 57.173859 -1.372690 1,025 275 136 0
2019-06-26 19:13:59 GMT 57.173721 -1.369257 1,025 275 136 64
2019-06-26 19:13:56 GMT 57.173595 -1.366557 1,025 275 136 0
2019-06-26 19:13:49 GMT 57.173218 -1.357412 1,025 275 136 -64
2019-06-26 19:13:46 GMT 57.173130 -1.354774 1,025 275 136 0
2019-06-26 19:13:41 GMT 57.172852 -1.347885 1,025 275 136 0
2019-06-26 19:13:36 GMT 57.172665 -1.343167 1,025 274 136 0
2019-06-26 19:13:31 GMT 57.172440 -1.336813 1,025 275 136 0
2019-06-26 19:13:28 GMT 57.172348 -1.333809 1,025 275 136 64
2019-06-26 19:13:19 GMT 57.171890 -1.322479 1,025 274 137 0
2019-06-26 19:13:15 GMT 57.171799 -1.319389 1,025 275 137 0
2019-06-26 19:13:10 GMT 57.171547 -1.313221 1,025 275 137 0
2019-06-26 19:13:05 GMT 57.171295 -1.306858 1,025 275 137 0
2019-06-26 19:13:00 GMT 57.171112 -1.301193 1,025 275 137 0
2019-06-26 19:12:56 GMT 57.170849 -1.295324 1,025 275 137 64
2019-06-26 19:12:50 GMT 57.170616 -1.289210 1,025 274 137 0
2019-06-26 19:12:45 GMT 57.170383 -1.284071 1,025 275 137 64
2019-06-26 19:12:39 GMT 57.170151 -1.277504 1,025 274 137 0
2019-06-26 19:12:35 GMT 57.169968 -1.272354 1,025 275 137 -64
2019-06-26 19:12:29 GMT 57.169693 -1.265402 1,025 275 137 0
2019-06-26 19:12:24 GMT 57.169453 -1.259441 1,025 274 137 64
2019-06-26 19:12:18 GMT 57.169174 -1.251290 1,025 275 137 0
2019-06-26 19:12:14 GMT 57.169006 -1.247635 1,025 275 137 0
2019-06-26 19:12:07 GMT 57.168732 -1.239738 1,025 274 137 0
2019-06-26 19:12:04 GMT 57.168522 -1.234722 1,025 275 137 0
2019-06-26 19:11:57 GMT 57.168243 -1.227545 1,025 275 137 -64
2019-06-26 19:11:54 GMT 57.168102 -1.224267 1,025 275 137 0
2019-06-26 19:11:47 GMT 57.167679 -1.212788 1,025 275 136 0
2019-06-26 19:11:37 GMT 57.167313 -1.203623 1,025 275 136 0
2019-06-26 19:11:34 GMT 57.167175 -1.201200 1,025 275 136 0
2019-06-26 19:11:28 GMT 57.166893 -1.193700 1,025 275 136 -64
2019-06-26 19:11:24 GMT 57.166718 -1.189184 1,025 275 136 0
2019-06-26 19:11:16 GMT 57.166332 -1.179878 1,025 275 136 64
2019-06-26 19:11:12 GMT 57.166195 -1.176157 1,025 274 136 0
2019-06-26 19:11:06 GMT 57.165894 -1.168413 1,025 274 136 0
2019-06-26 19:11:01 GMT 57.165710 -1.163263 1,025 275 136 0
2019-06-26 19:10:55 GMT 57.165401 -1.156488 1,025 275 137 0
2019-06-26 19:10:46 GMT 57.164986 -1.144793 1,025 274 138 0
2019-06-26 19:10:35 GMT 57.164520 -1.132793 1,025 275 141 -64
2019-06-26 19:10:25 GMT 57.164017 -1.120777 1,050 275 143 -256
2019-06-26 19:10:15 GMT 57.163513 -1.107817 1,125 275 144 -512
2019-06-26 19:10:05 GMT 57.163010 -1.095629 1,225 275 143 -448
2019-06-26 19:10:02 GMT 57.162827 -1.091509 1,225 275 142 -448
2019-06-26 19:09:54 GMT 57.162506 -1.083269 1,275 275 142 -448
2019-06-26 19:09:45 GMT 57.161957 -1.070901 1,400 275 141 -384
2019-06-26 19:09:34 GMT 57.161499 -1.058893 1,450 275 138 -384
2019-06-26 19:09:24 GMT 57.161026 -1.047068 1,525 275 136 -320
2019-06-26 19:09:13 GMT 57.160515 -1.034753 1,525 275 133 64
2019-06-26 19:09:02 GMT 57.159988 -1.022930 1,525 275 133 64
2019-06-26 19:08:53 GMT 57.159531 -1.011600 1,525 275 133 -64
2019-06-26 19:08:43 GMT 57.159119 -1.000642 1,525 274 134 64
2019-06-26 19:08:33 GMT 57.158661 -0.988855 1,500 276 135 64
2019-06-26 19:08:23 GMT 57.158142 -0.977252 1,525 274 134 -64
2019-06-26 19:08:12 GMT 57.157677 -0.965468 1,525 275 133 -128
2019-06-26 19:08:02 GMT 57.157150 -0.954094 1,525 275 131 0
2019-06-26 19:07:51 GMT 57.156647 -0.942335 1,525 275 131 64
2019-06-26 19:07:42 GMT 57.156235 -0.931435 1,525 274 131 0
2019-06-26 19:07:31 GMT 57.155731 -0.919333 1,525 275 132 -64
2019-06-26 19:07:20 GMT 57.155182 -0.906801 1,525 275 131 128
2019-06-26 19:07:11 GMT 57.154770 -0.896502 1,500 274 132 -64
2019-06-26 19:07:08 GMT 57.154633 -0.893583 1,525 275 133 64
2019-06-26 19:07:00 GMT 57.154312 -0.885258 1,525 275 133 0
2019-06-26 19:06:50 GMT 57.153858 -0.873679 1,525 274 133 64
2019-06-26 19:06:40 GMT 57.153347 -0.862161 1,525 275 133 64
2019-06-26 19:06:30 GMT 57.152847 -0.850496 1,525 275 133 64
2019-06-26 19:06:19 GMT 57.152370 -0.838859 1,500 275 134 0
2019-06-26 19:06:09 GMT 57.151901 -0.827519 1,525 275 133 0
2019-06-26 19:06:00 GMT 57.151428 -0.816765 1,525 275 133 0
2019-06-26 19:05:50 GMT 57.150970 -0.805900 1,525 275 132 64
2019-06-26 19:05:40 GMT 57.150467 -0.794449 1,525 275 133 0
2019-06-26 19:05:37 GMT 57.150368 -0.791636 1,525 275 133 0
2019-06-26 19:05:34 GMT 57.150181 -0.787560 1,525 275 134 0
2019-06-26 19:05:30 GMT 57.149643 -0.774708 1,525 275 134 0
2019-06-26 19:05:24 GMT 57.149643 -0.774708 1,525 275 134 -64
2019-06-26 19:05:17 GMT 57.149342 -0.767803 1,525 275 134 0
2019-06-26 19:05:14 GMT 57.149250 -0.765233 1,525 275 134 0
2019-06-26 19:05:09 GMT 57.148785 -0.754335 1,525 275 134 0
2019-06-26 19:05:05 GMT 57.148785 -0.754335 1,525 275 134 -64
2019-06-26 19:04:59 GMT 57.148506 -0.747956 1,525 275 134 64
2019-06-26 19:04:55 GMT 57.148270 -0.742865 1,525 275 134 0
2019-06-26 19:04:47 GMT 57.147903 -0.734196 1,525 275 134 -64
2019-06-26 19:04:37 GMT 57.147400 -0.722866 1,525 275 132 128
2019-06-26 19:04:26 GMT 57.146896 -0.711021 1,525 275 132 64
2019-06-26 19:04:17 GMT 57.146393 -0.698833 1,500 275 133 -128
2019-06-26 19:04:05 GMT 57.145851 -0.687177 1,525 275 132 0
2019-06-26 19:03:56 GMT 57.145340 -0.676346 1,500 275 132 0
2019-06-26 19:03:48 GMT 57.144791 -0.663557 1,525 275 132 -128
2019-06-26 19:03:38 GMT 57.144455 -0.656079 1,525 275 132 -64
2019-06-26 19:03:34 GMT 57.144314 -0.652269 1,525 275 132 0
2019-06-26 19:03:25 GMT 57.143829 -0.641584 1,525 275 131 -64
2019-06-26 19:03:18 GMT 57.143463 -0.632915 1,525 275 131 128
2019-06-26 19:03:15 GMT 57.143280 -0.629396 1,525 275 131 128
2019-06-26 19:03:07 GMT 57.142963 -0.621702 1,525 276 131 0
2019-06-26 19:03:03 GMT 57.142780 -0.618158 1,525 275 131 0
2019-06-26 19:02:57 GMT 57.142452 -0.610804 1,525 275 131 0
2019-06-26 19:02:53 GMT 57.142273 -0.606909 1,525 275 131 -64
2019-06-26 19:02:47 GMT 57.141953 -0.599356 1,525 274 131 0
2019-06-26 19:02:44 GMT 57.141800 -0.595477 1,525 275 131 128
2019-06-26 19:02:36 GMT 57.141449 -0.587339 1,525 275 134 -64
2019-06-26 19:02:33 GMT 57.141312 -0.584164 1,525 276 134 -64
2019-06-26 19:02:26 GMT 57.140900 -0.576181 1,525 275 134 0
2019-06-26 19:02:23 GMT 57.140778 -0.572441 1,525 275 134 -64
2019-06-26 19:02:16 GMT 57.140396 -0.564423 1,525 275 132 64
2019-06-26 19:02:13 GMT 57.140266 -0.561012 1,525 275 131 64
2019-06-26 19:02:06 GMT 57.139938 -0.553522 1,525 275 132 64
2019-06-26 19:02:02 GMT 57.139751 -0.549582 1,525 275 133 -64
2019-06-26 19:01:55 GMT 57.139381 -0.541431 1,525 275 132 -64
2019-06-26 19:01:52 GMT 57.139194 -0.537621 1,525 276 132 0
2019-06-26 19:01:45 GMT 57.138866 -0.530445 1,525 275 131 -64
2019-06-26 19:01:41 GMT 57.138702 -0.526142 1,525 275 131 64
2019-06-26 19:01:35 GMT 57.138355 -0.518838 1,500 275 132 -128
2019-06-26 19:01:30 GMT 57.138123 -0.513699 1,525 276 132 64
2019-06-26 19:01:25 GMT 57.137844 -0.506966 1,525 275 132 0
2019-06-26 19:01:20 GMT 57.137650 -0.502625 1,525 275 132 -64
2019-06-26 19:01:15 GMT 57.137375 -0.496359 1,525 275 132 64
2019-06-26 19:01:11 GMT 57.137146 -0.491727 1,500 275 132 -128
2019-06-26 19:01:04 GMT 57.136871 -0.484943 1,525 275 132 -128
2019-06-26 19:01:00 GMT 57.136585 -0.479411 1,525 275 132 0
2019-06-26 19:00:55 GMT 57.136307 -0.472678 1,525 275 131 -64
2019-06-26 19:00:50 GMT 57.136093 -0.468807 1,525 275 131 0
2019-06-26 19:00:44 GMT 57.135796 -0.462046 1,525 275 130 192
2019-06-26 19:00:39 GMT 57.135563 -0.456907 1,525 275 130 0
We lost coverage of the aircraft here for a total of 5 minutes
2019-06-26 18:55:25 GMT 57.119705 -0.117159 1,525 276 120 0
2019-06-26 18:55:14 GMT 57.119129 -0.105876 1,525 276 120 0
2019-06-26 18:55:06 GMT 57.118744 -0.097418 1,525 275 119 0
2019-06-26 18:54:57 GMT 57.118340 -0.089042 1,525 276 118 0
2019-06-26 18:54:47 GMT 57.117733 -0.076993 1,525 275 118 0
2019-06-26 18:54:36 GMT 57.117325 -0.067892 1,525 275 118 0
2019-06-26 18:54:29 GMT 57.116989 -0.060602 1,525 275 118 0
2019-06-26 18:54:26 GMT 57.116848 -0.057590 1,525 275 118 0
2019-06-26 18:54:16 GMT 57.116364 -0.047550 1,525 275 118 0
2019-06-26 18:54:06 GMT 57.115871 -0.037212 1,525 275 118 0
2019-06-26 18:53:56 GMT 57.115360 -0.027377 1,525 276 117 -64
2019-06-26 18:53:46 GMT 57.114895 -0.017277 1,525 276 116 64
2019-06-26 18:53:35 GMT 57.114395 -0.007124 1,525 276 116 0
2019-06-26 18:53:25 GMT 57.113892 0.003004 1,525 276 117 -64
2019-06-26 18:53:16 GMT 57.113358 0.013201 1,525 276 117 0
2019-06-26 18:53:04 GMT 57.112846 0.023656 1,525 276 117 0
2019-06-26 18:52:54 GMT 57.112335 0.033731 1,525 276 117 0
2019-06-26 18:52:45 GMT 57.111832 0.043087 1,525 276 117 0
2019-06-26 18:52:34 GMT 57.111355 0.053337 1,525 276 118 0
2019-06-26 18:52:24 GMT 57.110825 0.063686 1,525 276 119 0
2019-06-26 18:52:15 GMT 57.110332 0.074246 1,525 276 119 0
2019-06-26 18:52:04 GMT 57.109818 0.084286 1,525 276 120 0
2019-06-26 18:51:53 GMT 57.109268 0.094671 1,525 276 120 0
2019-06-26 18:51:44 GMT 57.108765 0.104885 1,525 275 120 0
2019-06-26 18:51:34 GMT 57.108353 0.115099 1,525 275 119 0
2019-06-26 18:51:22 GMT 57.107864 0.126254 1,525 275 118 0
2019-06-26 18:51:13 GMT 57.107445 0.135912 1,525 275 117 0
2019-06-26 18:51:01 GMT 57.106888 0.147715 1,525 275 117 0
2019-06-26 18:50:52 GMT 57.106514 0.156821 1,525 275 118 0
2019-06-26 18:50:41 GMT 57.106018 0.167713 1,525 275 119 -64
2019-06-26 18:50:31 GMT 57.105583 0.177730 1,525 275 120 0
2019-06-26 18:50:22 GMT 57.105240 0.186939 1,525 275 120 0
2019-06-26 18:50:11 GMT 57.104794 0.197754 1,525 275 121 0
2019-06-26 18:50:00 GMT 57.104279 0.209599 1,525 275 122 0
2019-06-26 18:49:51 GMT 57.103863 0.218663 1,525 275 123 0
2019-06-26 18:49:42 GMT 57.103443 0.228409 1,525 275 123 0
2019-06-26 18:49:32 GMT 57.102768 0.244703 1,525 275 125 0
2019-06-26 18:49:20 GMT 57.102493 0.251226 1,525 275 125 0
2019-06-26 18:49:10 GMT 57.102047 0.261900 1,525 275 126 0
2019-06-26 18:49:01 GMT 57.101627 0.271823 1,525 275 128 -256
2019-06-26 18:48:54 GMT 57.101299 0.279620 1,575 275 128 -384
2019-06-26 18:48:50 GMT 57.101021 0.286088 1,600 275 122 64
2019-06-26 18:48:40 GMT 57.100662 0.293798 1,675 276 123 -320
2019-06-26 18:48:30 GMT 57.100136 0.305136 1,675 275 122 0
2019-06-26 18:48:19 GMT 57.099655 0.316029 1,675 275 122 0
2019-06-26 18:48:09 GMT 57.099197 0.326157 1,675 275 122 0
We lost coverage of the aircraft here for a total of 139 minutes
2019-06-26 16:29:31 GMT 57.064941 0.605577 2,675 97 161 0
2019-06-26 16:29:27 GMT 57.065506 0.598068 2,675 97 161 0
2019-06-26 16:29:19 GMT 57.066154 0.588655 2,675 97 161 0
2019-06-26 16:29:09 GMT 57.067177 0.575010 2,675 97 162 0
2019-06-26 16:28:45 GMT 57.069489 0.543051 2,675 97 163 0
2019-06-26 16:28:38 GMT 57.070267 0.532322 2,700 97 163 0
We lost coverage of the aircraft here for a total of 6 minutes
2019-06-26 16:22:58 GMT 57.102951 0.067034 2,525 97 162 0
2019-06-26 16:21:42 GMT 57.110046 -0.038109 2,525 97 164 0
2019-06-26 16:21:34 GMT 57.110935 -0.050945 2,525 96 164 0
2019-06-26 16:21:24 GMT 57.111729 -0.062285 2,525 97 163 -64
2019-06-26 16:20:39 GMT 57.115871 -0.123951 2,525 97 163 0
2019-06-26 16:20:28 GMT 57.116848 -0.138835 2,525 96 164 64
2019-06-26 16:20:18 GMT 57.117783 -0.153036 2,525 96 164 0
2019-06-26 16:20:08 GMT 57.118744 -0.167112 2,525 96 164 0
2019-06-26 16:19:58 GMT 57.119751 -0.182390 2,525 96 164 0
2019-06-26 16:19:48 GMT 57.120575 -0.194750 2,525 96 163 0
2019-06-26 16:19:35 GMT 57.121830 -0.214056 2,525 97 163 0
2019-06-26 16:19:26 GMT 57.122543 -0.224962 2,525 97 163 -64
2019-06-26 16:19:14 GMT 57.123600 -0.241433 2,525 96 165 0
2019-06-26 16:19:11 GMT 57.123871 -0.245476 2,525 96 165 0
2019-06-26 16:19:03 GMT 57.124718 -0.258356 2,525 96 164 64
2019-06-26 16:18:52 GMT 57.125694 -0.273063 2,525 96 164 0
2019-06-26 16:18:42 GMT 57.126625 -0.286885 2,525 97 163 0
2019-06-26 16:18:32 GMT 57.127441 -0.299377 2,525 97 163 0
2019-06-26 16:18:22 GMT 57.128349 -0.313553 2,525 96 164 0
2019-06-26 16:18:12 GMT 57.129272 -0.327272 2,525 96 164 0
2019-06-26 16:18:02 GMT 57.130211 -0.341551 2,525 96 164 64
2019-06-26 16:17:51 GMT 57.131142 -0.356435 2,525 96 164 0
2019-06-26 16:17:42 GMT 57.131973 -0.369072 2,525 96 164 -64
2019-06-26 16:17:31 GMT 57.132935 -0.384007 2,525 96 165 64
2019-06-26 16:17:19 GMT 57.134125 -0.402718 2,525 96 165 -64
2019-06-26 16:17:13 GMT 57.134583 -0.409584 2,525 96 164 0
2019-06-26 16:17:01 GMT 57.135590 -0.425634 2,525 96 164 64
2019-06-26 16:16:51 GMT 57.136585 -0.440782 2,525 96 166 -128
2019-06-26 16:16:41 GMT 57.137379 -0.453540 2,525 96 163 -64
2019-06-26 16:16:30 GMT 57.138355 -0.468868 2,525 96 164 64
2019-06-26 16:16:18 GMT 57.139526 -0.487089 2,525 96 165 0
2019-06-26 16:16:10 GMT 57.140171 -0.496954 2,525 96 166 -64
2019-06-26 16:15:58 GMT 57.141220 -0.513525 2,525 96 164 0
2019-06-26 16:15:49 GMT 57.141987 -0.525660 2,525 96 165 -64
2019-06-26 16:15:39 GMT 57.142872 -0.539836 2,525 96 164 0
2019-06-26 16:15:30 GMT 57.143784 -0.554295 2,525 96 164 -64
2019-06-26 16:15:19 GMT 57.144688 -0.568365 2,525 96 169 0
2019-06-26 16:15:09 GMT 57.145523 -0.582190 2,525 96 167 -64
2019-06-26 16:14:58 GMT 57.146458 -0.597337 2,525 96 169 0
2019-06-26 16:14:47 GMT 57.147446 -0.613174 2,525 96 168 0
2019-06-26 16:14:39 GMT 57.148224 -0.626132 2,525 96 166 0
2019-06-26 16:14:26 GMT 57.149185 -0.642357 2,525 96 167 -64
2019-06-26 16:14:16 GMT 57.150055 -0.656519 2,525 96 168 64
2019-06-26 16:14:06 GMT 57.151020 -0.670963 2,525 96 171 -64
2019-06-26 16:13:56 GMT 57.151951 -0.686025 2,525 96 172 0
2019-06-26 16:13:45 GMT 57.152893 -0.701237 2,525 96 173 0
2019-06-26 16:13:35 GMT 57.153858 -0.715972 2,525 96 172 0
2019-06-26 16:13:25 GMT 57.154816 -0.731707 2,525 96 170 64
2019-06-26 16:13:17 GMT 57.155457 -0.742693 2,525 96 170 -64
2019-06-26 16:13:14 GMT 57.155731 -0.746469 2,525 96 170 0
2019-06-26 16:13:07 GMT 57.156372 -0.756905 2,525 96 170 64
2019-06-26 16:13:04 GMT 57.156601 -0.761061 2,525 96 170 0
2019-06-26 16:12:54 GMT 57.157581 -0.776220 2,525 96 170 0
2019-06-26 16:12:46 GMT 57.158249 -0.786982 2,525 96 170 0
2019-06-26 16:12:43 GMT 57.158512 -0.791459 2,525 96 170 0
2019-06-26 16:12:36 GMT 57.159119 -0.801470 2,525 96 169 0
2019-06-26 16:12:32 GMT 57.159397 -0.805812 2,525 96 168 0
2019-06-26 16:12:26 GMT 57.160004 -0.816001 2,525 96 167 0
2019-06-26 16:12:22 GMT 57.160236 -0.820608 2,525 96 167 0
2019-06-26 16:12:16 GMT 57.160843 -0.830531 2,525 96 167 0
2019-06-26 16:12:12 GMT 57.161121 -0.835404 2,525 96 167 64
2019-06-26 16:12:06 GMT 57.161728 -0.845327 2,525 96 168 0
2019-06-26 16:12:02 GMT 57.161957 -0.849580 2,525 96 168 0
2019-06-26 16:11:54 GMT 57.162598 -0.860023 2,525 96 168 -64
2019-06-26 16:11:51 GMT 57.162937 -0.864642 2,525 96 168 0
2019-06-26 16:11:44 GMT 57.163513 -0.874529 2,525 96 169 64
2019-06-26 16:11:41 GMT 57.163834 -0.879335 2,525 96 168 64
2019-06-26 16:11:35 GMT 57.164333 -0.888298 2,525 96 169 0
2019-06-26 16:11:30 GMT 57.164703 -0.894323 2,525 96 169 0
2019-06-26 16:11:24 GMT 57.165310 -0.903714 2,525 96 169 0
2019-06-26 16:11:20 GMT 57.165634 -0.909384 2,525 96 169 0
2019-06-26 16:11:15 GMT 57.166149 -0.917713 2,525 96 169 0
2019-06-26 16:11:10 GMT 57.166473 -0.923117 2,525 96 169 0
2019-06-26 16:11:04 GMT 57.166985 -0.932332 2,525 96 167 -64
2019-06-26 16:11:00 GMT 57.167358 -0.938002 2,525 96 170 0
2019-06-26 16:10:54 GMT 57.167870 -0.946685 2,525 96 169 0
2019-06-26 16:10:49 GMT 57.168365 -0.955124 2,525 96 171 0
2019-06-26 16:10:43 GMT 57.168823 -0.962677 2,525 96 170 0
2019-06-26 16:10:39 GMT 57.169098 -0.967569 2,525 96 170 0
2019-06-26 16:10:33 GMT 57.169640 -0.976011 2,525 96 169 -64
2019-06-26 16:10:28 GMT 57.170059 -0.983019 2,525 96 168 0
2019-06-26 16:10:23 GMT 57.170479 -0.990542 2,525 96 169 0
2019-06-26 16:10:18 GMT 57.170895 -0.997364 2,525 96 168 0
2019-06-26 16:10:11 GMT 57.171570 -1.008682 2,525 96 167 0
2019-06-26 16:10:08 GMT 57.171799 -1.012030 2,525 96 167 64
2019-06-26 16:10:03 GMT 57.172256 -1.020269 2,525 96 167 0
2019-06-26 16:09:57 GMT 57.172668 -1.027136 2,525 96 167 0
2019-06-26 16:09:52 GMT 57.173172 -1.035719 2,525 96 168 0
2019-06-26 16:09:48 GMT 57.173550 -1.041841 2,525 96 169 0
2019-06-26 16:09:42 GMT 57.174015 -1.049460 2,525 96 167 0
2019-06-26 16:09:37 GMT 57.174435 -1.056637 2,525 96 168 0
2019-06-26 16:09:33 GMT 57.174774 -1.063099 2,525 96 168 0
2019-06-26 16:09:26 GMT 57.175323 -1.071596 2,525 96 168 0
2019-06-26 16:09:23 GMT 57.176159 -1.086052 2,525 96 168 64
2019-06-26 16:09:17 GMT 57.176159 -1.086052 2,525 96 168 64
2019-06-26 16:09:12 GMT 57.176514 -1.092196 2,525 96 168 0
2019-06-26 16:09:06 GMT 57.177040 -1.101202 2,525 96 168 -64
2019-06-26 16:09:02 GMT 57.177368 -1.106961 2,525 96 168 0
2019-06-26 16:08:55 GMT 57.177879 -1.115467 2,525 96 168 64
2019-06-26 16:08:52 GMT 57.178207 -1.120777 2,525 96 168 64
2019-06-26 16:08:45 GMT 57.178764 -1.130617 2,525 96 169 -64
2019-06-26 16:08:40 GMT 57.179993 -1.151075 2,525 96 168 -64
2019-06-26 16:08:32 GMT 57.179993 -1.151075 2,525 96 168 0
2019-06-26 16:08:25 GMT 57.180496 -1.159658 2,525 96 168 0
2019-06-26 16:08:21 GMT 57.180817 -1.165323 2,525 96 168 0
2019-06-26 16:08:14 GMT 57.181412 -1.175022 2,525 96 167 0
2019-06-26 16:08:11 GMT 57.181686 -1.179571 2,525 96 168 0
2019-06-26 16:08:04 GMT 57.182281 -1.189871 2,525 96 167 0
2019-06-26 16:08:01 GMT 57.182510 -1.194077 2,525 95 167 0
2019-06-26 16:07:54 GMT 57.183277 -1.208142 2,525 95 167 0
2019-06-26 16:07:43 GMT 57.183929 -1.219311 2,525 95 166 0
2019-06-26 16:07:40 GMT 57.184113 -1.223001 2,525 96 166 0
2019-06-26 16:07:33 GMT 57.184723 -1.233304 2,525 96 167 -64
2019-06-26 16:07:30 GMT 57.184937 -1.236906 2,525 96 167 -64
2019-06-26 16:07:23 GMT 57.185577 -1.248236 2,525 96 167 0
2019-06-26 16:07:20 GMT 57.185795 -1.252087 2,525 96 167 0
2019-06-26 16:07:14 GMT 57.186264 -1.259651 2,525 96 167 0
2019-06-26 16:07:10 GMT 57.186584 -1.265659 2,525 96 167 0
2019-06-26 16:07:02 GMT 57.187317 -1.277847 2,525 96 167 0
2019-06-26 16:06:59 GMT 57.187500 -1.281109 2,525 96 167 0
2019-06-26 16:06:53 GMT 57.188026 -1.290185 2,525 96 167 0
2019-06-26 16:06:49 GMT 57.188354 -1.295324 2,525 96 167 0
2019-06-26 16:06:40 GMT 57.189053 -1.308348 2,525 95 166 0
2019-06-26 16:06:36 GMT 57.189377 -1.313752 2,525 95 166 0
2019-06-26 16:06:29 GMT 57.189938 -1.323853 2,525 95 166 0
2019-06-26 16:06:22 GMT 57.190540 -1.334041 2,525 96 166 0
2019-06-26 16:06:18 GMT 57.190868 -1.340243 2,525 96 166 0
2019-06-26 16:06:11 GMT 57.191437 -1.349430 2,525 95 166 0
2019-06-26 16:06:08 GMT 57.191620 -1.353121 2,525 95 166 0
2019-06-26 16:05:58 GMT 57.192535 -1.368999 2,525 95 166 0
2019-06-26 16:05:48 GMT 57.193268 -1.381617 2,525 96 165 0
2019-06-26 16:05:38 GMT 57.194092 -1.395693 2,525 95 165 0
2019-06-26 16:05:27 GMT 57.194916 -1.410885 2,525 95 164 0
2019-06-26 16:05:17 GMT 57.195694 -1.424789 2,525 95 163 0
2019-06-26 16:05:07 GMT 57.196499 -1.439120 2,525 95 163 64
2019-06-26 16:04:57 GMT 57.197296 -1.453199 2,525 95 164 0
2019-06-26 16:04:47 GMT 57.198074 -1.467190 2,525 95 164 0
2019-06-26 16:04:36 GMT 57.198944 -1.482468 2,525 95 162 0
2019-06-26 16:04:25 GMT 57.199722 -1.497059 2,525 95 162 0
2019-06-26 16:04:15 GMT 57.200500 -1.510620 2,525 95 164 0
2019-06-26 16:04:05 GMT 57.201324 -1.525726 2,525 95 163 0
2019-06-26 16:03:55 GMT 57.202087 -1.539769 2,525 95 163 0
2019-06-26 16:03:44 GMT 57.202927 -1.554565 2,525 95 163 0
2019-06-26 16:03:34 GMT 57.203659 -1.568470 2,525 95 164 0
2019-06-26 16:03:24 GMT 57.204414 -1.582829 2,525 95 163 0
2019-06-26 16:03:14 GMT 57.205215 -1.597652 2,525 95 164 0
2019-06-26 16:03:03 GMT 57.205952 -1.611801 2,525 95 164 0
2019-06-26 16:02:52 GMT 57.206787 -1.626242 2,525 95 163 0
2019-06-26 16:02:44 GMT 57.207413 -1.637735 2,525 95 163 -64
2019-06-26 16:02:41 GMT 57.207672 -1.642633 2,525 95 163 -64
2019-06-26 16:02:34 GMT 57.208183 -1.651759 2,525 95 163 0
2019-06-26 16:02:31 GMT 57.208370 -1.655392 2,525 95 163 0
2019-06-26 16:02:22 GMT 57.209118 -1.668770 2,525 95 164 0
2019-06-26 16:02:14 GMT 57.209747 -1.680565 2,525 95 164 -64
2019-06-26 16:02:11 GMT 57.209930 -1.684427 2,525 95 164 0
2019-06-26 16:02:03 GMT 57.210510 -1.694907 2,525 95 164 64
2019-06-26 16:01:58 GMT 57.210846 -1.701422 2,525 95 163 0
2019-06-26 16:01:53 GMT 57.211258 -1.709083 2,525 95 162 0
2019-06-26 16:01:43 GMT 57.211956 -1.722639 2,525 95 164 0
2019-06-26 16:01:40 GMT 57.212173 -1.726141 2,525 95 164 0
2019-06-26 16:01:33 GMT 57.212700 -1.737169 2,525 95 164 0
2019-06-26 16:01:29 GMT 57.212906 -1.741419 2,500 95 164 -64
2019-06-26 16:01:22 GMT 57.213444 -1.751611 2,525 95 164 -128
2019-06-26 16:01:19 GMT 57.213631 -1.755509 2,525 95 164 -128
2019-06-26 16:01:12 GMT 57.214233 -1.766310 2,550 95 165 -64
2019-06-26 16:01:08 GMT 57.214470 -1.771191 2,550 95 165 128
2019-06-26 16:01:02 GMT 57.214981 -1.779962 2,525 95 167 -64
2019-06-26 16:00:59 GMT 57.215214 -1.784481 2,525 95 167 0
2019-06-26 16:00:51 GMT 57.215790 -1.795149 2,525 95 165 0
2019-06-26 16:00:44 GMT 57.216339 -1.805534 2,525 95 164 0
2019-06-26 16:00:41 GMT 57.216518 -1.809023 2,525 95 164 0
2019-06-26 16:00:38 GMT 57.217529 -1.828022 2,525 95 163 64
2019-06-26 16:00:29 GMT 57.217529 -1.828022 2,525 95 163 0
2019-06-26 16:00:20 GMT 57.218056 -1.838172 2,525 95 164 -128
2019-06-26 16:00:11 GMT 57.218811 -1.852570 2,525 95 165 64
2019-06-26 16:00:01 GMT 57.219543 -1.866045 2,525 95 165 64
2019-06-26 15:59:56 GMT 57.219864 -1.872225 2,525 95 165 64
2019-06-26 15:59:50 GMT 57.220333 -1.880788 2,525 95 164 -64
2019-06-26 15:59:44 GMT 57.220779 -1.888704 2,525 95 164 -64
2019-06-26 15:59:40 GMT 57.221100 -1.895142 2,525 94 161 0
2019-06-26 15:59:35 GMT 57.221375 -1.901150 2,525 94 161 0
2019-06-26 15:59:30 GMT 57.221786 -1.909733 2,525 95 161 0
2019-06-26 15:59:22 GMT 57.222290 -1.919152 2,525 95 162 0
2019-06-26 15:59:19 GMT 57.222519 -1.923208 2,525 95 163 0
2019-06-26 15:59:16 GMT 57.222801 -1.928366 2,525 95 163 0
2019-06-26 15:59:07 GMT 57.223454 -1.940859 2,525 95 162 0
2019-06-26 15:58:59 GMT 57.223984 -1.951704 2,525 94 161 64
2019-06-26 15:58:56 GMT 57.224167 -1.955738 2,525 95 160 64
2019-06-26 15:58:49 GMT 57.224670 -1.965265 2,525 95 160 0
2019-06-26 15:58:39 GMT 57.225357 -1.978569 2,500 95 159 0
2019-06-26 15:58:36 GMT 57.225594 -1.983298 2,525 95 159 -64
2019-06-26 15:58:29 GMT 57.226013 -1.991183 2,525 95 160 0
2019-06-26 15:58:25 GMT 57.226364 -1.997623 2,525 95 162 64
2019-06-26 15:58:18 GMT 57.226852 -2.007220 2,525 95 162 64
2019-06-26 15:58:08 GMT 57.227596 -2.021484 2,525 95 161 -64
2019-06-26 15:57:58 GMT 57.228294 -2.034863 2,525 95 158 0
2019-06-26 15:57:51 GMT 57.228745 -2.043800 2,525 95 157 -64
2019-06-26 15:57:48 GMT 57.228947 -2.048064 2,525 95 154 0
2019-06-26 15:57:45 GMT 57.229134 -2.052140 2,525 95 153 0
2019-06-26 15:57:37 GMT 57.230110 -2.070923 2,500 95 149 64
2019-06-26 15:57:27 GMT 57.230904 -2.085542 2,500 95 144 64
2019-06-26 15:57:16 GMT 57.231079 -2.088518 2,500 95 141 128
2019-06-26 15:57:13 GMT 57.231319 -2.092984 2,475 95 133 576
2019-06-26 15:57:06 GMT 57.231693 -2.100515 2,425 95 130 896
2019-06-26 15:56:54 GMT 57.232407 -2.114010 2,275 95 127 1088
2019-06-26 15:56:44 GMT 57.232956 -2.124224 2,075 95 127 832
2019-06-26 15:56:34 GMT 57.233505 -2.135296 1,900 95 124 1088
2019-06-26 15:56:26 GMT 57.233929 -2.143220 1,775 95 125 960
2019-06-26 15:56:23 GMT 57.234116 -2.145967 1,725 95 125 960
2019-06-26 15:56:13 GMT 57.234695 -2.157097 1,550 95 124 896
2019-06-26 15:56:05 GMT 57.235107 -2.165251 1,450 93 121 896
2019-06-26 15:56:02 GMT 57.235245 -2.169027 1,375 92 119 1280
2019-06-26 15:55:54 GMT 57.235336 -2.177095 1,250 84 116 1024
2019-06-26 15:55:44 GMT 57.234421 -2.186794 1,075 70 113 960
2019-06-26 15:55:41 GMT 57.233963 -2.189369 1,050 69 112 960
2019-06-26 15:55:34 GMT 57.232533 -2.196025 900 65 110 960
2019-06-26 15:55:30 GMT 57.231903 -2.198639 875 62 109 1152
2019-06-26 15:55:24 GMT 57.230206 -2.203999 750 52 107 896
2019-06-26 15:55:20 GMT 57.228992 -2.206657 700 40 105 896
2019-06-26 15:55:13 GMT 57.226200 -2.210113 525 22 99 1216
2019-06-26 15:55:08 GMT 57.224350 -2.211084 475 6 98 1024
2019-06-26 15:55:03 GMT 57.221970 -2.211170 400 352 97 896
2019-06-26 15:54:58 GMT 57.219864 -2.210140 325 341 91 1088
2019-06-26 15:54:53 GMT 57.217682 -2.208784 225 341 88 1088
2019-06-26 15:54:44 GMT 57.214325 -2.206535 75 341 81 896
2019-06-26 15:54:34 GMT 57.210793 -2.204176 -100 341 76 832
2019-06-26 15:54:22 GMT 57.207184 -2.201729 -225 338 55 512
2019-06-26 15:54:13 GMT 57.205627 -2.200527 -275 339 26 128
2019-06-26 15:53:41 GMT 57.204941 -2.200055 0 2 7
2019-06-26 15:53:31 GMT 57.204666 -2.200549 0 47 9
2019-06-26 15:53:19 GMT 57.204391 -2.201208 0 64 10
2019-06-26 15:53:10 GMT 57.204346 -2.201900 0 87 9
2019-06-26 15:53:01 GMT 57.204346 -2.202480 0 84 7
2019-06-26 15:52:46 GMT 57.204540 -2.203102 0 140 7
2019-06-26 15:52:36 GMT 57.204792 -2.203381 0 165 7
2019-06-26 15:52:09 GMT 57.205467 -2.204239 0 140 7
2019-06-26 15:52:00 GMT 57.205685 -2.204597 0 140 7
2019-06-26 15:51:49 GMT 57.205929 -2.204974 0 140 8
2019-06-26 15:51:36 GMT 57.206268 -2.205527 0 140 7
2019-06-26 15:51:29 GMT 57.206440 -2.205784 0 140 7
2019-06-26 15:51:16 GMT 57.206707 -2.206281 0 118 7
2019-06-26 15:51:09 GMT 57.206661 -2.206657 0 61 6
2019-06-26 15:51:05 GMT 57.206600 -2.206793 0 47 6
2019-06-26 15:50:57 GMT 57.206406 -2.206945 0 14 7
2019-06-26 15:50:47 GMT 57.206108 -2.207007 0 5 7
2019-06-26 15:50:37 GMT 57.205799 -2.207050 0 5 7
2019-06-26 15:50:29 GMT 57.205559 -2.207072 0 2 7
2019-06-26 15:50:16 GMT 57.205227 -2.207050 0 354 5
2019-06-26 15:50:09 GMT 57.205101 -2.206945 0 334 4
2019-06-26 15:49:49 GMT 57.204895 -2.206686 0 320 0
2019-06-26 15:49:44 GMT 57.204884 -2.206664 0 320 0
2019-06-26 15:49:34 GMT 57.204861 -2.206621 0 320 0
2019-06-26 15:49:24 GMT 57.204868 -2.206613 0 320 0
2019-06-26 15:49:03 GMT 57.204861 -2.206621 0 320 0
2019-06-26 15:48:44 GMT 57.204868 -2.206613 0 320 0
2019-06-26 15:48:34 GMT 57.204861 -2.206621 0 320 0
2019-06-26 15:48:23 GMT 57.204868 -2.206635 0 320 0
2019-06-26 15:47:34 GMT 57.204861 -2.206621 0 320 0
2019-06-26 15:47:14 GMT 57.204868 -2.206635 0 320 0
2019-06-26 15:46:59 GMT 57.204861 -2.206621 0 320 0
2019-06-26 15:46:54 GMT 57.204857 -2.206635 0 320 0
2019-06-26 15:46:43 GMT 57.204868 -2.206635 0 320 0
2019-06-26 15:46:34 GMT 57.204861 -2.206621 0 320 0
2019-06-26 15:46:10 GMT 57.204868 -2.206635 0 320 0
2019-06-26 15:45:59 GMT 57.204861 -2.206621 0 320 0
2019-06-26 15:45:49 GMT 57.204868 -2.206635 0 320 0
2019-06-26 15:45:39 GMT 57.204861 -2.206621 0 320 0
2019-06-26 15:45:30 GMT 57.204868 -2.206635 0 320 0
2019-06-26 15:45:09 GMT 57.204861 -2.206621 0 320 0
2019-06-26 15:44:59 GMT 57.204857 -2.206635 0 320 0
2019-06-26 15:44:35 GMT 57.204861 -2.206621 0 320 0
2019-06-26 15:44:29 GMT 57.204857 -2.206635 0 320 0
2019-06-26 15:44:18 GMT 57.204861 -2.206621 0 320 0
2019-06-26 15:43:48 GMT 57.204857 -2.206635 0 320 0

Making use of Plane Finder data

You are free to use the raw flight data, aircraft information and images provided in this report for your own purposes provided the data is correctly attributed to Plane Finder. We ask that you please credit Plane Finder and link to planefinder.net in close proximity to the content.

Optionally one of the following logos (no smaller then 150x24px) can be used and must link to planefinder.net

Embedding the Plane Finder map

You are welcome to embed the Plane Finder playback map on your website to offer visitors a more interactive experience. We suggest using the following HTML code:

<iframe src="//planefinder.net/data/report/HKS21Q-G-EMEC-7700-squawk-2019-06-26/map" width="800" height="600" seamless="seamless"></iframe>

Where our data comes from

Plane Finder has a global network of data feeds and antenna radars that receive data broadcast directly from aircraft. The primary technologies used are ADS-B and MLAT. We also show feeds from the FAA and a FLARM glider feed.

Click here to find out more about the Plane Finder network.

How we collect our data